createdAt,value
2023-03-05T00:02:48.642Z,101282.38
2023-03-05T00:05:57.614Z,101283.28
2023-03-05T00:09:00.478Z,101292.03
2023-03-05T00:12:03.076Z,101277.97
2023-03-05T00:15:06.691Z,101275.28
2023-03-05T00:18:10.601Z,101272.84
2023-03-05T00:21:22.292Z,101271.91
2023-03-05T00:24:24.885Z,101268.38
2023-03-05T00:27:27.500Z,101269.28
2023-03-05T00:30:30.162Z,101248.28
2023-03-05T00:33:34.148Z,101256.97
2023-03-05T00:36:40.836Z,101260.47
2023-03-05T00:39:43.492Z,101255.41
2023-03-05T00:42:46.525Z,101257.06
2023-03-05T00:45:49.158Z,101258.00
2023-03-05T00:48:53.076Z,101255.19
2023-03-05T00:51:55.714Z,101251.53
2023-03-05T00:54:58.408Z,101250.97
2023-03-05T00:58:00.981Z,101244.94
2023-03-05T01:01:04.484Z,101242.38
2023-03-05T01:04:08.583Z,101235.44
2023-03-05T01:07:11.143Z,101240.81
2023-03-05T01:10:14.487Z,101226.78
2023-03-05T01:13:17.048Z,101227.69
2023-03-05T01:16:19.665Z,101228.44
2023-03-05T01:19:23.629Z,101219.59
2023-03-05T01:22:26.183Z,101225.69
2023-03-05T01:25:28.901Z,101214.41
2023-03-05T01:28:32.408Z,101216.91
2023-03-05T01:31:35.053Z,101217.09
2023-03-05T01:34:39.215Z,101219.00
2023-03-05T01:37:41.786Z,101209.44
2023-03-05T01:40:44.848Z,101205.00
2023-03-05T01:43:48.517Z,101204.13
2023-03-05T01:46:51.136Z,101202.28
2023-03-05T01:49:55.287Z,101205.00
2023-03-05T01:53:00.249Z,101184.97
2023-03-05T01:56:03.329Z,101189.41
2023-03-05T01:59:05.972Z,101187.66
2023-03-05T02:02:08.992Z,101180.56
2023-03-05T02:05:17.105Z,101180.56
2023-03-05T02:08:22.904Z,101182.38
2023-03-05T02:11:25.552Z,101173.59
2023-03-05T02:14:28.967Z,101176.19
2023-03-05T02:17:31.637Z,101173.47
2023-03-05T02:20:46.760Z,101169.13
2023-03-05T02:23:50.673Z,101164.81
2023-03-05T02:26:53.259Z,101158.75
2023-03-05T02:29:55.890Z,101161.31
2023-03-05T02:32:58.875Z,101147.47
2023-03-05T02:36:01.460Z,101147.44
2023-03-05T02:39:05.661Z,101143.69
2023-03-05T02:42:08.366Z,101145.59
2023-03-05T02:45:12.155Z,101135.19
2023-03-05T02:48:14.769Z,101135.25
2023-03-05T02:51:18.011Z,101133.41
2023-03-05T02:54:22.732Z,101134.19
2023-03-05T02:57:25.454Z,101122.94
2023-03-05T03:00:28.346Z,101121.22
2023-03-05T03:03:31.389Z,101122.09
2023-03-05T03:06:34.066Z,101129.81
2023-03-05T03:09:38.168Z,101122.97
2023-03-05T03:12:42.155Z,101113.53
2023-03-05T03:15:45.061Z,101114.28
2023-03-05T03:18:48.766Z,101104.63
2023-03-05T03:21:51.533Z,101094.28
2023-03-05T03:24:55.486Z,101096.88
2023-03-05T03:27:58.053Z,101096.75
2023-03-05T03:31:00.644Z,101095.94
2023-03-05T03:34:03.256Z,101086.28
2023-03-05T03:37:06.264Z,101080.16
2023-03-05T03:40:12.729Z,101078.41
2023-03-05T03:43:15.330Z,101076.63
2023-03-05T03:46:17.925Z,101084.44
2023-03-05T03:49:22.852Z,101078.13
2023-03-05T03:52:26.308Z,101084.19
2023-03-05T03:55:30.281Z,101075.31
2023-03-05T03:58:33.194Z,101073.66
2023-03-05T04:01:35.793Z,101071.13
2023-03-05T04:04:38.487Z,101063.94
2023-03-05T04:07:41.096Z,101064.88
2023-03-05T04:10:45.380Z,101063.25
2023-03-05T04:13:48.426Z,101061.56
2023-03-05T04:16:51.059Z,101059.78
2023-03-05T04:19:53.663Z,101054.78
2023-03-05T04:22:56.361Z,101059.97
2023-03-05T04:26:00.540Z,101047.66
2023-03-05T04:29:03.128Z,101055.50
2023-03-05T04:32:06.159Z,101043.31
2023-03-05T04:35:09.354Z,101056.50
2023-03-05T04:38:12.174Z,101053.03
2023-03-05T04:41:16.127Z,101039.88
2023-03-05T04:44:19.155Z,101048.63
2023-03-05T04:47:21.916Z,101049.44
2023-03-05T04:50:24.587Z,101036.38
2023-03-05T04:53:27.274Z,101035.50
2023-03-05T04:56:31.261Z,101020.97
2023-03-05T04:59:33.984Z,101021.69
2023-03-05T05:02:36.559Z,101019.00
2023-03-05T05:05:39.222Z,101013.81
2023-03-05T05:08:41.802Z,101013.00
2023-03-05T05:11:45.707Z,101013.69
2023-03-05T05:14:48.286Z,101014.66
2023-03-05T05:17:51.042Z,101008.53
2023-03-05T05:20:53.869Z,101009.50
2023-03-05T05:23:56.450Z,101008.50
2023-03-05T05:27:00.379Z,101004.00
2023-03-05T05:30:04.036Z,101003.88
2023-03-05T05:33:06.620Z,100997.88
2023-03-05T05:36:11.961Z,101003.91
2023-03-05T05:39:14.776Z,100999.69
2023-03-05T05:42:19.020Z,100997.03
2023-03-05T05:45:21.646Z,100992.81
2023-03-05T05:48:24.560Z,100991.78
2023-03-05T05:51:27.155Z,100992.47
2023-03-05T05:54:29.847Z,100989.31
2023-03-05T05:57:34.790Z,100999.75
2023-03-05T06:00:37.401Z,100992.78
2023-03-05T06:03:39.998Z,100992.75
2023-03-05T06:06:42.712Z,100990.16
2023-03-05T06:09:45.690Z,100992.69
2023-03-05T06:12:49.643Z,100994.66
2023-03-05T06:15:58.648Z,100993.63
2023-03-05T06:19:04.473Z,100990.03
2023-03-05T06:22:07.286Z,100991.13
2023-03-05T06:25:12.968Z,100998.72
2023-03-05T06:28:16.964Z,100995.25
2023-03-05T06:31:22.278Z,100989.91
2023-03-05T06:34:24.916Z,100986.50
2023-03-05T06:37:27.494Z,100993.53
2023-03-05T06:40:30.186Z,100991.78
2023-03-05T06:43:35.475Z,100990.03
2023-03-05T06:46:39.151Z,100993.41
2023-03-05T06:49:41.781Z,100989.19
2023-03-05T06:52:44.385Z,100988.22
2023-03-05T06:55:47.393Z,100985.59
2023-03-05T06:58:52.921Z,100985.44
2023-03-05T07:01:55.527Z,100993.47
2023-03-05T07:04:58.097Z,100986.50
2023-03-05T07:08:00.676Z,100987.19
2023-03-05T07:11:03.476Z,100987.38
2023-03-05T07:14:07.633Z,100993.44
2023-03-05T07:17:10.248Z,100994.25
2023-03-05T07:20:13.530Z,100990.63
2023-03-05T07:23:16.164Z,100997.00
2023-03-05T07:26:18.752Z,100985.44
2023-03-05T07:29:23.507Z,100991.53
2023-03-05T07:32:26.111Z,100986.41
2023-03-05T07:35:28.784Z,100989.88
2023-03-05T07:38:31.663Z,100991.50
2023-03-05T07:41:34.578Z,100983.66
2023-03-05T07:44:38.929Z,100975.69
2023-03-05T07:47:41.616Z,100966.97
2023-03-05T07:50:44.270Z,100958.16
2023-03-05T07:53:48.330Z,100960.91
2023-03-05T07:56:50.950Z,100960.69
2023-03-05T07:59:54.902Z,100958.19
2023-03-05T08:02:57.478Z,100961.53
2023-03-05T08:06:00.112Z,100952.78
2023-03-05T08:09:02.725Z,100963.56
2023-03-05T08:12:05.548Z,100954.41
2023-03-05T08:15:10.559Z,100948.41
2023-03-05T08:18:13.739Z,100936.97
2023-03-05T08:21:20.996Z,100929.84
2023-03-05T08:24:29.279Z,100938.50
2023-03-05T08:27:32.235Z,100940.13
2023-03-05T08:30:36.208Z,100929.47
2023-03-05T08:33:39.618Z,100936.38
2023-03-05T08:36:42.377Z,100937.56
2023-03-05T08:39:44.971Z,100930.41
2023-03-05T08:42:47.617Z,100932.91
2023-03-05T08:45:53.459Z,100935.97
2023-03-05T08:48:56.417Z,100934.00
2023-03-05T08:51:58.975Z,100931.28
2023-03-05T08:55:01.768Z,100921.59
2023-03-05T08:58:04.417Z,100922.44
2023-03-05T09:01:08.399Z,100916.72
2023-03-05T09:04:11.018Z,100921.69
2023-03-05T09:07:13.984Z,100916.34
2023-03-05T09:10:18.274Z,100914.50
2023-03-05T09:13:21.069Z,100916.56
2023-03-05T09:16:25.011Z,100912.78
2023-03-05T09:19:28.207Z,100904.94
2023-03-05T09:22:30.936Z,100912.44
2023-03-05T09:25:33.528Z,100899.78
2023-03-05T09:28:36.374Z,100910.91
2023-03-05T09:31:40.375Z,100902.47
2023-03-05T09:34:43.025Z,100905.00
2023-03-05T09:37:45.610Z,100901.13
2023-03-05T09:40:56.168Z,100903.84
2023-03-05T09:44:06.135Z,100897.63
2023-03-05T09:47:23.822Z,100883.19
2023-03-05T09:50:39.029Z,100888.34
2023-03-05T09:53:47.512Z,100890.81
2023-03-05T09:56:56.522Z,100878.97
2023-03-05T10:00:02.474Z,100881.56
2023-03-05T10:03:13.944Z,100890.13
2023-03-05T10:06:21.253Z,100876.84
2023-03-05T10:09:32.902Z,100882.16
2023-03-05T10:12:42.410Z,100884.00
2023-03-05T10:15:53.492Z,100875.50
2023-03-05T10:19:05.750Z,100884.50
2023-03-05T10:22:17.683Z,100889.34
2023-03-05T10:25:27.351Z,100891.50
2023-03-05T10:28:41.366Z,100888.41
2023-03-05T10:31:57.131Z,100881.41
2023-03-05T10:35:24.390Z,100890.19
2023-03-05T10:39:00.022Z,100879.03
2023-03-05T10:42:12.142Z,100880.06
2023-03-05T10:45:17.933Z,100874.81
2023-03-05T10:48:29.781Z,100861.97
2023-03-05T10:51:38.120Z,100869.66
2023-03-05T10:54:42.771Z,100870.75
2023-03-05T10:57:45.761Z,100861.25
2023-03-05T11:01:07.238Z,100859.16
2023-03-05T11:04:27.871Z,100850.91
2023-03-05T11:07:38.811Z,100851.38
2023-03-05T11:10:41.438Z,100840.47
2023-03-05T11:13:53.682Z,100842.34
2023-03-05T11:16:56.540Z,100833.47
2023-03-05T11:20:19.612Z,100834.38
2023-03-05T11:23:25.317Z,100834.06
2023-03-05T11:26:27.905Z,100825.63
2023-03-05T11:29:32.109Z,100818.34
2023-03-05T11:32:34.719Z,100816.16
2023-03-05T11:35:39.330Z,100815.88
2023-03-05T11:38:53.415Z,100813.84
2023-03-05T11:42:00.270Z,100801.38
2023-03-05T11:45:05.260Z,100792.19
2023-03-05T11:48:13.152Z,100785.75
2023-03-05T11:51:21.281Z,100793.88
2023-03-05T11:54:31.548Z,100820.78
2023-03-05T11:57:40.521Z,100813.41
2023-03-05T12:00:45.909Z,100814.13
2023-03-05T12:03:49.777Z,100809.28
2023-03-05T12:06:55.174Z,100799.25
2023-03-05T12:09:59.388Z,100793.38
2023-03-05T12:13:12.664Z,100775.91
2023-03-05T12:16:24.316Z,100767.78
2023-03-05T12:19:40.456Z,100764.28
2023-03-05T12:22:44.602Z,100768.34
2023-03-05T12:25:50.792Z,100754.56
2023-03-05T12:28:57.440Z,100755.53
2023-03-05T12:32:01.453Z,100745.66
2023-03-05T12:35:05.199Z,100742.38
2023-03-05T12:38:31.117Z,100735.44
2023-03-05T12:41:37.466Z,100724.09
2023-03-05T12:44:40.250Z,100719.31
2023-03-05T12:47:43.901Z,100720.94
2023-03-05T12:50:58.590Z,100705.34
2023-03-05T12:54:23.456Z,100700.50
2023-03-05T12:57:29.485Z,100704.22
2023-03-05T13:00:41.463Z,100687.00
2023-03-05T13:03:48.235Z,100688.72
2023-03-05T13:07:00.604Z,100689.47
2023-03-05T13:10:03.246Z,100679.78
2023-03-05T13:13:07.570Z,100684.22
2023-03-05T13:16:18.589Z,100690.56
2023-03-05T13:19:21.928Z,100698.81
2023-03-05T13:22:25.536Z,100680.13
2023-03-05T13:25:28.508Z,100681.97
2023-03-05T13:28:33.774Z,100681.63
2023-03-05T13:31:37.605Z,100674.97
2023-03-05T13:34:48.166Z,100675.56
2023-03-05T13:37:51.028Z,100670.22
2023-03-05T13:41:21.832Z,100668.66
2023-03-05T13:44:25.796Z,100671.84
2023-03-05T13:47:31.624Z,100665.47
2023-03-05T13:50:36.185Z,100661.50
2023-03-05T13:53:38.809Z,100659.31
2023-03-05T13:56:54.146Z,100657.84
2023-03-05T13:59:58.129Z,100663.28
2023-03-05T14:03:03.162Z,100652.28
2023-03-05T14:06:09.939Z,100649.63
2023-03-05T14:09:21.344Z,100639.53
2023-03-05T14:12:28.112Z,100640.38
2023-03-05T14:15:34.119Z,100632.84
2023-03-05T14:18:37.906Z,100628.97
2023-03-05T14:21:45.899Z,100634.16
2023-03-05T14:24:53.000Z,100624.22
2023-03-05T14:27:55.671Z,100624.22
2023-03-05T14:30:59.663Z,100617.66
2023-03-05T14:34:05.549Z,100604.16
2023-03-05T14:37:20.093Z,100607.22
2023-03-05T14:40:27.176Z,100614.69
2023-03-05T14:43:29.739Z,100606.19
2023-03-05T14:46:33.759Z,100593.78
2023-03-05T14:49:36.439Z,100599.22
2023-03-05T14:52:39.088Z,100598.22
2023-03-05T14:55:43.682Z,100587.56
2023-03-05T14:58:46.361Z,100585.44
2023-03-05T15:01:51.330Z,100585.91
2023-03-05T15:04:54.074Z,100574.16
2023-03-05T15:07:56.889Z,100578.88
2023-03-05T15:11:00.962Z,100575.53
2023-03-05T15:14:03.535Z,100564.06
2023-03-05T15:17:07.503Z,100564.13
2023-03-05T15:20:15.656Z,100557.22
2023-03-05T15:23:18.389Z,100562.44
2023-03-05T15:26:21.706Z,100556.28
2023-03-05T15:29:24.288Z,100557.78
2023-03-05T15:32:29.090Z,100556.31
2023-03-05T15:35:31.934Z,100550.28
2023-03-05T15:38:34.572Z,100551.50
2023-03-05T15:41:37.180Z,100556.06
2023-03-05T15:44:40.247Z,100542.69
2023-03-05T15:47:44.205Z,100541.53
2023-03-05T15:50:46.826Z,100541.97
2023-03-05T15:53:49.430Z,100541.84
2023-03-05T15:56:53.009Z,100538.75
2023-03-05T15:59:55.902Z,100538.53
2023-03-05T16:02:59.926Z,100533.72
2023-03-05T16:06:04.965Z,100537.16
2023-03-05T16:09:07.682Z,100533.22
2023-03-05T16:12:13.547Z,100542.78
2023-03-05T16:15:18.257Z,100531.91
2023-03-05T16:18:24.204Z,100524.88
2023-03-05T16:21:26.878Z,100523.34
2023-03-05T16:24:29.467Z,100523.66
2023-03-05T16:27:32.189Z,100516.97
2023-03-05T16:30:34.754Z,100514.41
2023-03-05T16:33:38.696Z,100520.06
2023-03-05T16:36:42.365Z,100516.06
2023-03-05T16:39:45.085Z,100517.78
2023-03-05T16:42:47.670Z,100508.38
2023-03-05T16:45:50.250Z,100508.47
2023-03-05T16:48:54.646Z,100509.50
2023-03-05T16:51:59.397Z,100510.88
2023-03-05T16:55:04.384Z,100500.91
2023-03-05T16:58:07.114Z,100506.16
2023-03-05T17:01:11.195Z,100498.91
2023-03-05T17:04:15.302Z,100505.16
2023-03-05T17:07:18.169Z,100494.78
2023-03-05T17:10:20.775Z,100502.81
2023-03-05T17:13:23.343Z,100507.03
2023-03-05T17:16:26.071Z,100496.31
2023-03-05T17:19:30.048Z,100493.94
2023-03-05T17:22:32.667Z,100496.50
2023-03-05T17:25:35.246Z,100489.41
2023-03-05T17:28:37.849Z,100482.47
2023-03-05T17:31:40.710Z,100484.59
2023-03-05T17:34:44.703Z,100488.53
2023-03-05T17:37:47.384Z,100490.44
2023-03-05T17:40:49.997Z,100494.44
2023-03-05T17:43:52.592Z,100482.22
2023-03-05T17:46:55.177Z,100488.59
2023-03-05T17:49:59.390Z,100495.84
2023-03-05T17:53:02.036Z,100488.72
2023-03-05T17:56:07.776Z,100481.59
2023-03-05T17:59:10.506Z,100484.19
2023-03-05T18:02:13.789Z,100475.34
2023-03-05T18:05:18.291Z,100472.69
2023-03-05T18:08:20.951Z,100467.34
2023-03-05T18:11:23.677Z,100472.44
2023-03-05T18:14:26.682Z,100471.94
2023-03-05T18:17:29.412Z,100468.19
2023-03-05T18:20:37.068Z,100463.91
2023-03-05T18:23:39.711Z,100462.44
2023-03-05T18:26:42.434Z,100464.34
2023-03-05T18:29:44.990Z,100456.47
2023-03-05T18:32:47.577Z,100468.03
2023-03-05T18:35:52.871Z,100452.34
2023-03-05T18:38:57.687Z,100458.44
2023-03-05T18:42:00.468Z,100447.22
2023-03-05T18:45:03.566Z,100437.56
2023-03-05T18:48:06.300Z,100437.56
2023-03-05T18:51:14.981Z,100431.50
2023-03-05T18:54:17.567Z,100426.25
2023-03-05T18:57:20.149Z,100428.19
2023-03-05T19:00:26.600Z,100421.16
2023-03-05T19:03:29.237Z,100429.03
2023-03-05T19:06:34.889Z,100427.31
2023-03-05T19:09:52.076Z,100417.81
2023-03-05T19:13:05.256Z,100417.84
2023-03-05T19:16:12.951Z,100410.72
2023-03-05T19:19:16.543Z,100401.97
2023-03-05T19:22:21.365Z,100407.25
2023-03-05T19:25:24.146Z,100412.63
2023-03-05T19:28:27.639Z,100401.38
2023-03-05T19:31:30.397Z,100388.97
2023-03-05T19:34:33.834Z,100385.53
2023-03-05T19:37:37.770Z,100387.97
2023-03-05T19:40:41.767Z,100380.31
2023-03-05T19:43:45.031Z,100372.50
2023-03-05T19:46:48.527Z,100375.03
2023-03-05T19:49:51.123Z,100363.63
2023-03-05T19:52:55.108Z,100363.06
2023-03-05T19:55:57.679Z,100366.50
2023-03-05T19:59:00.243Z,100362.81
2023-03-05T20:02:03.109Z,100357.69
2023-03-05T20:05:06.378Z,100348.97
2023-03-05T20:08:10.330Z,100348.91
2023-03-05T20:11:15.365Z,100343.66
2023-03-05T20:14:18.175Z,100344.09
2023-03-05T20:17:20.787Z,100343.03
2023-03-05T20:20:23.658Z,100340.41
2023-03-05T20:23:28.743Z,100334.38
2023-03-05T20:26:33.613Z,100341.13
2023-03-05T20:29:36.198Z,100324.44
2023-03-05T20:32:38.846Z,100335.84
2023-03-05T20:35:41.476Z,100322.78
2023-03-05T20:38:45.749Z,100324.50
2023-03-05T20:41:49.219Z,100326.31
2023-03-05T20:44:52.113Z,100322.84
2023-03-05T20:47:54.839Z,100323.91
2023-03-05T20:50:58.038Z,100311.84
2023-03-05T20:54:03.985Z,100311.78
2023-03-05T20:57:06.678Z,100306.41
2023-03-05T21:00:10.705Z,100294.19
2023-03-05T21:03:13.330Z,100298.44
2023-03-05T21:06:15.977Z,100296.88
2023-03-05T21:09:19.921Z,100296.88
2023-03-05T21:12:22.480Z,100283.84
2023-03-05T21:15:27.727Z,100280.38
2023-03-05T21:18:31.078Z,100271.56
2023-03-05T21:21:33.794Z,100273.44
2023-03-05T21:24:52.153Z,100270.63
2023-03-05T21:27:57.290Z,100268.16
2023-03-05T21:31:06.152Z,100268.09
2023-03-05T21:34:08.753Z,100265.78
2023-03-05T21:37:11.522Z,100262.38
2023-03-05T21:40:17.632Z,100256.88
2023-03-05T21:43:22.407Z,100258.59
2023-03-05T21:46:25.035Z,100249.94
2023-03-05T21:49:27.649Z,100246.31
2023-03-05T21:52:30.237Z,100242.25
2023-03-05T21:55:43.083Z,100241.13
2023-03-05T21:58:45.810Z,100246.50
2023-03-05T22:01:48.455Z,100233.47
2023-03-05T22:04:51.312Z,100239.66
2023-03-05T22:07:53.945Z,100241.56
2023-03-05T22:10:57.992Z,100234.56
2023-03-05T22:14:00.598Z,100233.09
2023-03-05T22:17:03.347Z,100233.69
2023-03-05T22:20:06.737Z,100225.09
2023-03-05T22:23:09.356Z,100222.59
2023-03-05T22:26:13.389Z,100212.16
2023-03-05T22:29:17.329Z,100230.50
2023-03-05T22:32:19.982Z,100225.34
2023-03-05T22:35:22.695Z,100218.41
2023-03-05T22:38:26.199Z,100215.81
2023-03-05T22:41:30.131Z,100214.91
2023-03-05T22:44:32.752Z,100205.31
2023-03-05T22:47:35.770Z,100211.59
2023-03-05T22:50:38.426Z,100218.56
2023-03-05T22:53:41.359Z,100217.81
2023-03-05T22:56:45.296Z,100221.22
2023-03-05T22:59:49.627Z,100224.63
2023-03-05T23:02:52.584Z,100218.59
2023-03-05T23:05:55.315Z,100220.31
2023-03-05T23:08:57.966Z,100222.13
2023-03-05T23:12:01.900Z,100217.91
2023-03-05T23:15:06.914Z,100210.09
2023-03-05T23:18:09.590Z,100209.13
2023-03-05T23:21:12.247Z,100213.56
2023-03-05T23:24:14.826Z,100212.78
2023-03-05T23:27:19.748Z,100212.78
2023-03-05T23:30:23.403Z,100206.59
2023-03-05T23:33:26.125Z,100204.03
2023-03-05T23:36:28.696Z,100206.56
2023-03-05T23:39:31.471Z,100197.09
2023-03-05T23:42:35.409Z,100200.50
2023-03-05T23:45:38.720Z,100193.66
2023-03-05T23:48:41.593Z,100195.34
2023-03-05T23:51:44.184Z,100196.19
2023-03-05T23:54:46.768Z,100191.78
2023-03-05T23:57:50.864Z,100195.25
